Eriksdale, Canada
Current Conditions -  °F | °C
As of 1:00 AM on Monday 22 Dec 2014 (Local Time) from CYWG Reporting Station
Haze Haze  
Wind Chill: 23°   Ceiling: 300
Heat Index: 30°   Visibility: 2.5mi
Dew Point: 30°   Wind: 8mph
Humidity: 100%   Direction: 150°SSE
Pressure: 29.62"   Gusts: NA
Location:  50.87°N, 98.1°W
Report Text: CYWG 220700Z 15007KT 2 1/2SM BR OVC003 M01/M01 A2962 RMK ST8 SLP041
Loading
Personal Weather Stations






























Interactive Weather Map New forecast layout! Learn more

10-Day Weather Forecast

Advertisements
Track Severe Weather on mobile